createdAt,value
2022-12-01T00:00:34.847Z,44.60
2022-12-01T00:03:09.110Z,52.75
2022-12-01T00:05:42.809Z,40.42
2022-12-01T00:08:16.091Z,48.63
2022-12-01T00:10:48.341Z,55.30
2022-12-01T00:15:56.549Z,50.38
2022-12-01T00:18:29.978Z,39.25
2022-12-01T00:21:03.249Z,43.42
2022-12-01T00:23:36.752Z,48.88
2022-12-01T00:26:12.102Z,50.63
2022-12-01T00:28:50.095Z,43.13
2022-12-01T00:31:23.890Z,47.47
2022-12-01T00:33:57.219Z,42.55
2022-12-01T00:36:30.661Z,46.97
2022-12-01T00:39:03.960Z,49.17
2022-12-01T00:41:37.218Z,49.28
2022-12-01T00:44:12.218Z,44.08
2022-12-01T00:46:45.525Z,52.60
2022-12-01T00:49:19.004Z,41.15
2022-12-01T00:51:52.416Z,42.83
2022-12-01T00:54:25.874Z,49.03
2022-12-01T00:56:59.670Z,49.05
2022-12-01T00:59:35.137Z,37.88
2022-12-01T01:02:09.538Z,37.33
2022-12-01T01:04:42.963Z,39.78
2022-12-01T01:07:16.261Z,60.03
2022-12-01T01:09:50.150Z,48.55
2022-12-01T01:12:23.523Z,50.75
2022-12-01T01:14:58.490Z,53.25
2022-12-01T01:17:31.945Z,50.00
2022-12-01T01:20:06.926Z,48.15
2022-12-01T01:22:40.517Z,39.97
2022-12-01T01:25:14.103Z,43.47
2022-12-01T01:27:47.392Z,41.33
2022-12-01T01:30:22.315Z,42.15
2022-12-01T01:32:55.611Z,38.17
2022-12-01T01:35:29.334Z,45.90
2022-12-01T01:38:02.587Z,40.97
2022-12-01T01:40:36.306Z,49.92
2022-12-01T01:43:16.032Z,40.53
2022-12-01T01:45:50.749Z,44.53
2022-12-01T01:48:24.386Z,42.50
2022-12-01T01:50:57.720Z,43.10
2022-12-01T01:53:32.031Z,42.40
2022-12-01T01:56:07.115Z,39.35
2022-12-01T01:58:41.707Z,40.47
2022-12-01T02:01:16.733Z,49.72
2022-12-01T02:03:53.757Z,46.13
2022-12-01T02:06:27.167Z,46.58
2022-12-01T02:09:00.645Z,37.10
2022-12-01T02:12:01.259Z,45.28
2022-12-01T02:14:58.760Z,49.05
2022-12-01T02:17:45.823Z,33.92
2022-12-01T02:20:47.753Z,44.58
2022-12-01T02:23:48.967Z,45.43
2022-12-01T02:26:46.005Z,50.58
2022-12-01T02:29:54.903Z,41.28
2022-12-01T02:32:35.494Z,36.75
2022-12-01T02:35:14.977Z,37.10
2022-12-01T02:38:00.323Z,39.15
2022-12-01T02:40:39.697Z,35.60
2022-12-01T02:43:21.414Z,42.05
2022-12-01T02:46:00.035Z,40.20
2022-12-01T02:48:36.574Z,42.90
2022-12-01T02:51:15.614Z,50.88
2022-12-01T02:53:49.160Z,38.67
2022-12-01T02:56:24.434Z,48.30
2022-12-01T02:58:57.679Z,46.58
2022-12-01T03:01:45.148Z,39.35
2022-12-01T03:04:43.901Z,53.15
2022-12-01T03:07:33.398Z,40.55
2022-12-01T03:10:16.804Z,41.95
2022-12-01T03:13:01.925Z,38.50
2022-12-01T03:15:40.520Z,37.50
2022-12-01T03:18:26.719Z,46.60
2022-12-01T03:21:05.775Z,38.92
2022-12-01T03:23:44.925Z,38.92
2022-12-01T03:26:20.701Z,40.50
2022-12-01T03:28:57.921Z,32.30
2022-12-01T03:31:36.278Z,23.38
2022-12-01T03:34:16.427Z,31.65
2022-12-01T03:36:54.850Z,16.85
2022-12-01T03:39:33.332Z,18.48
2022-12-01T03:42:13.043Z,20.60
2022-12-01T03:44:51.633Z,17.17
2022-12-01T03:47:29.565Z,15.10
2022-12-01T03:50:04.237Z,21.27
2022-12-01T03:52:46.934Z,16.67
2022-12-01T03:55:24.662Z,14.25
2022-12-01T03:58:02.375Z,17.95
2022-12-01T04:00:36.812Z,16.77
2022-12-01T04:03:17.634Z,11.77
2022-12-01T04:05:51.203Z,15.57
2022-12-01T04:08:26.265Z,17.30
2022-12-01T04:10:59.590Z,14.52
2022-12-01T04:13:33.088Z,14.80
2022-12-01T04:16:06.979Z,14.43
2022-12-01T04:18:40.245Z,15.90
2022-12-01T04:21:13.961Z,11.07
2022-12-01T04:24:03.890Z,14.30
2022-12-01T04:26:38.501Z,12.38
2022-12-01T04:29:13.408Z,15.10
2022-12-01T04:31:46.921Z,15.43
2022-12-01T04:34:20.263Z,11.73
2022-12-01T04:36:53.708Z,12.65
2022-12-01T04:39:28.626Z,17.30
2022-12-01T04:42:02.113Z,13.40
2022-12-01T04:44:35.536Z,11.25
2022-12-01T04:47:09.021Z,11.75
2022-12-01T04:49:42.545Z,12.48
2022-12-01T04:52:16.019Z,16.38
2022-12-01T04:54:50.642Z,23.00
2022-12-01T04:57:23.901Z,33.47
2022-12-01T04:59:57.505Z,31.15
2022-12-01T05:02:30.853Z,32.00
2022-12-01T05:05:07.058Z,21.42
2022-12-01T05:07:40.390Z,17.05
2022-12-01T05:10:15.629Z,22.02
2022-12-01T05:12:49.006Z,22.33
2022-12-01T05:15:22.734Z,26.02
2022-12-01T05:17:55.988Z,28.70
2022-12-01T05:20:46.684Z,21.10
2022-12-01T05:23:19.995Z,28.27
2022-12-01T05:25:55.194Z,29.50
2022-12-01T05:28:28.974Z,28.83
2022-12-01T05:31:02.640Z,21.40
2022-12-01T05:33:36.119Z,23.02
2022-12-01T05:36:10.058Z,16.90
2022-12-01T05:38:43.314Z,17.35
2022-12-01T05:41:18.211Z,16.08
2022-12-01T05:43:51.555Z,14.63
2022-12-01T05:46:24.924Z,15.32
2022-12-01T05:48:58.273Z,103.28
2022-12-01T05:51:31.506Z,89.75
2022-12-01T05:54:05.001Z,124.38
2022-12-01T05:56:39.666Z,171.77
2022-12-01T05:59:13.303Z,163.98
2022-12-01T06:01:46.610Z,145.63
2022-12-01T06:04:22.097Z,155.13
2022-12-01T06:06:55.350Z,113.15
2022-12-01T06:09:28.789Z,125.00
2022-12-01T06:12:03.426Z,95.32
2022-12-01T06:14:36.687Z,78.22
2022-12-01T06:17:10.138Z,48.80
2022-12-01T06:19:44.518Z,41.70
2022-12-01T06:22:17.811Z,34.72
2022-12-01T06:24:51.132Z,30.27
2022-12-01T06:27:25.961Z,22.67
2022-12-01T06:29:59.358Z,21.05
2022-12-01T06:32:32.637Z,17.33
2022-12-01T06:35:06.565Z,17.90
2022-12-01T06:37:39.832Z,12.30
2022-12-01T06:40:14.004Z,17.90
2022-12-01T06:42:48.607Z,14.07
2022-12-01T06:45:21.884Z,17.88
2022-12-01T06:47:55.509Z,16.50
2022-12-01T06:50:28.834Z,16.48
2022-12-01T06:53:02.176Z,18.65
2022-12-01T06:55:35.714Z,17.10
2022-12-01T06:58:10.888Z,19.20
2022-12-01T07:00:48.978Z,17.20
2022-12-01T07:03:25.451Z,17.13
2022-12-01T07:06:00.226Z,13.68
2022-12-01T07:08:33.962Z,10.60
2022-12-01T07:11:09.076Z,8.45
2022-12-01T07:13:46.059Z,9.63
2022-12-01T07:16:19.389Z,9.50
2022-12-01T07:18:53.375Z,9.23
2022-12-01T07:21:26.657Z,9.15
2022-12-01T07:24:00.728Z,9.20
2022-12-01T07:26:34.053Z,9.77
2022-12-01T07:29:08.811Z,13.13
2022-12-01T07:31:42.351Z,13.00
2022-12-01T07:34:15.768Z,14.30
2022-12-01T07:36:49.041Z,20.80
2022-12-01T07:39:22.381Z,16.00
2022-12-01T07:41:56.785Z,18.92
2022-12-01T07:44:31.495Z,14.93
2022-12-01T07:47:04.813Z,15.60
2022-12-01T07:49:38.795Z,12.75
2022-12-01T07:52:12.080Z,13.75
2022-12-01T07:54:45.401Z,15.57
2022-12-01T07:57:20.562Z,16.08
2022-12-01T07:59:55.170Z,14.30
2022-12-01T08:02:28.568Z,15.32
2022-12-01T08:05:01.879Z,12.80
2022-12-01T08:07:35.199Z,9.60
2022-12-01T08:10:09.334Z,10.05
2022-12-01T08:12:42.670Z,8.45
2022-12-01T08:15:17.509Z,12.80
2022-12-01T08:17:50.886Z,7.68
2022-12-01T08:20:24.319Z,8.57
2022-12-01T08:23:01.179Z,9.68
2022-12-01T08:25:34.645Z,9.57
2022-12-01T08:28:07.962Z,9.02
2022-12-01T08:30:42.660Z,7.90
2022-12-01T08:33:15.934Z,14.63
2022-12-01T08:35:49.228Z,9.20
2022-12-01T08:38:22.705Z,34.03
2022-12-01T08:40:57.097Z,31.65
2022-12-01T08:46:25.271Z,23.60
2022-12-01T08:49:01.645Z,27.65
2022-12-01T08:51:35.938Z,32.55
2022-12-01T08:54:10.186Z,18.65
2022-12-01T08:56:45.842Z,10.85
2022-12-01T08:59:19.089Z,8.05
2022-12-01T09:01:53.864Z,10.98
2022-12-01T09:04:28.143Z,10.60
2022-12-01T09:07:01.576Z,10.10
2022-12-01T09:09:36.429Z,10.65
2022-12-01T09:12:10.390Z,12.27
2022-12-01T09:14:48.173Z,8.18
2022-12-01T09:17:23.652Z,9.80
2022-12-01T09:19:56.909Z,7.60
2022-12-01T09:22:30.146Z,8.93
2022-12-01T09:25:03.590Z,9.70
2022-12-01T09:27:36.861Z,10.90
2022-12-01T09:30:11.009Z,14.48
2022-12-01T09:32:45.619Z,7.20
2022-12-01T09:35:23.237Z,9.63
2022-12-01T09:37:56.883Z,8.18
2022-12-01T09:40:33.533Z,8.00
2022-12-01T09:43:14.108Z,9.00
2022-12-01T09:45:52.400Z,8.32
2022-12-01T09:48:31.676Z,9.05
2022-12-01T09:51:05.217Z,12.15
2022-12-01T09:53:38.951Z,12.70
2022-12-01T09:56:21.757Z,11.30
2022-12-01T10:01:35.433Z,12.05
2022-12-01T10:04:15.863Z,15.10
2022-12-01T10:06:55.768Z,12.68
2022-12-01T10:09:36.918Z,12.13
2022-12-01T10:12:15.697Z,14.60
2022-12-01T10:14:49.956Z,16.77
2022-12-01T10:17:30.004Z,14.27
2022-12-01T10:20:11.986Z,11.32
2022-12-01T10:23:13.516Z,8.45
2022-12-01T10:25:57.285Z,12.35
2022-12-01T10:28:54.101Z,10.25
2022-12-01T10:31:32.509Z,9.55
2022-12-01T10:34:11.831Z,9.82
2022-12-01T10:36:47.015Z,12.50
2022-12-01T10:39:24.117Z,25.63
2022-12-01T10:42:03.833Z,14.23
2022-12-01T10:44:37.440Z,13.57
2022-12-01T10:47:18.456Z,14.95
2022-12-01T10:49:52.555Z,20.33
2022-12-01T10:52:36.109Z,14.52
2022-12-01T10:55:28.064Z,18.10
2022-12-01T10:58:09.252Z,18.93
2022-12-01T11:01:01.149Z,10.88
2022-12-01T11:03:36.913Z,11.75
2022-12-01T11:06:12.036Z,15.20
2022-12-01T11:08:52.078Z,7.57
2022-12-01T11:11:33.873Z,10.68
2022-12-01T11:14:18.014Z,11.57
2022-12-01T11:16:54.179Z,19.55
2022-12-01T11:19:33.586Z,14.88
2022-12-01T11:22:25.028Z,8.85
2022-12-01T11:25:03.034Z,11.27
2022-12-01T11:27:45.479Z,13.73
2022-12-01T11:30:24.283Z,7.57
2022-12-01T11:33:00.964Z,12.20
2022-12-01T11:35:36.441Z,11.00
2022-12-01T11:38:30.124Z,17.83
2022-12-01T11:41:05.242Z,10.77
2022-12-01T11:43:42.626Z,14.52
2022-12-01T11:46:31.610Z,15.60
2022-12-01T11:49:05.560Z,11.38
2022-12-01T11:51:39.181Z,10.38
2022-12-01T11:54:18.314Z,10.27
2022-12-01T11:57:17.799Z,21.67
2022-12-01T11:59:48.247Z,12.93
2022-12-01T12:02:31.115Z,17.10
2022-12-01T12:05:37.262Z,9.75
2022-12-01T12:08:18.278Z,8.00
2022-12-01T12:11:00.661Z,9.40
2022-12-01T12:14:38.091Z,10.23
2022-12-01T12:17:25.828Z,16.48
2022-12-01T12:20:20.146Z,10.68
2022-12-01T12:23:02.993Z,9.80
2022-12-01T12:25:52.495Z,14.13
2022-12-01T12:28:39.413Z,13.60
2022-12-01T12:31:23.461Z,15.68
2022-12-01T12:34:22.740Z,14.80
2022-12-01T12:37:09.657Z,14.75
2022-12-01T12:40:05.721Z,14.43
2022-12-01T12:42:49.094Z,24.60
2022-12-01T12:45:27.736Z,36.88
2022-12-01T12:48:21.689Z,28.52
2022-12-01T12:51:04.882Z,15.10
2022-12-01T12:53:46.009Z,16.35
2022-12-01T12:56:23.130Z,11.48
2022-12-01T12:59:01.280Z,12.55
2022-12-01T13:01:39.593Z,10.45
2022-12-01T13:04:20.316Z,12.95
2022-12-01T13:07:02.176Z,12.23
2022-12-01T13:09:39.192Z,9.38
2022-12-01T13:12:17.316Z,18.08
2022-12-01T13:15:01.009Z,13.38
2022-12-01T13:17:38.526Z,12.25
2022-12-01T13:20:18.282Z,13.48
2022-12-01T13:22:52.878Z,15.40
2022-12-01T13:25:31.069Z,17.00
2022-12-01T13:28:06.803Z,23.33
2022-12-01T13:30:40.124Z,18.65
2022-12-01T13:33:17.510Z,17.50
2022-12-01T13:36:22.509Z,13.65
2022-12-01T13:38:58.362Z,22.45
2022-12-01T13:41:34.437Z,12.23
2022-12-01T13:44:10.089Z,18.83
2022-12-01T13:47:03.849Z,21.95
2022-12-01T13:49:42.190Z,21.67
2022-12-01T13:52:34.079Z,14.18
2022-12-01T13:55:28.761Z,11.15
2022-12-01T13:58:43.933Z,11.80
2022-12-01T14:01:45.559Z,11.82
2022-12-01T14:04:29.844Z,17.58
2022-12-01T14:07:27.062Z,11.80
2022-12-01T14:10:25.379Z,14.80
2022-12-01T14:13:03.372Z,19.27
2022-12-01T14:15:43.888Z,16.05
2022-12-01T14:18:34.147Z,16.17
2022-12-01T14:21:10.453Z,16.90
2022-12-01T14:24:02.238Z,24.63
2022-12-01T14:26:45.645Z,16.80
2022-12-01T14:29:31.716Z,21.80
2022-12-01T14:32:26.257Z,16.73
2022-12-01T14:35:14.907Z,19.73
2022-12-01T14:37:50.613Z,17.88
2022-12-01T14:40:29.768Z,22.25
2022-12-01T14:43:23.457Z,15.95
2022-12-01T14:46:07.206Z,17.27
2022-12-01T14:48:44.026Z,18.42
2022-12-01T14:51:25.136Z,16.50
2022-12-01T14:54:00.327Z,20.75
2022-12-01T14:56:35.172Z,12.07
2022-12-01T14:59:22.090Z,15.45
2022-12-01T15:01:58.858Z,15.70
2022-12-01T15:04:34.026Z,21.75
2022-12-01T15:07:08.239Z,20.17
2022-12-01T15:10:00.783Z,22.17
2022-12-01T15:12:34.679Z,26.67
2022-12-01T15:15:22.280Z,21.70
2022-12-01T15:18:01.730Z,23.10
2022-12-01T15:20:38.018Z,21.90
2022-12-01T15:23:15.595Z,24.92
2022-12-01T15:25:48.881Z,23.05
2022-12-01T15:28:30.076Z,20.13
2022-12-01T15:31:12.527Z,19.83
2022-12-01T15:33:51.641Z,22.55
2022-12-01T15:36:25.174Z,24.20
2022-12-01T15:39:06.803Z,18.55
2022-12-01T15:41:42.795Z,22.95
2022-12-01T15:44:21.732Z,20.20
2022-12-01T15:46:56.814Z,24.77
2022-12-01T15:49:34.456Z,17.20
2022-12-01T15:52:10.130Z,23.77
2022-12-01T15:54:48.911Z,32.92
2022-12-01T15:57:23.536Z,26.45
2022-12-01T16:00:01.067Z,29.50
2022-12-01T16:02:35.871Z,31.95
2022-12-01T16:05:18.294Z,26.30
2022-12-01T16:08:13.126Z,26.92
2022-12-01T16:10:45.937Z,32.28
2022-12-01T16:13:47.821Z,39.67
2022-12-01T16:16:27.594Z,36.90
2022-12-01T16:19:07.972Z,27.02
2022-12-01T16:21:46.109Z,30.15
2022-12-01T16:24:22.223Z,34.30
2022-12-01T16:27:00.398Z,25.55
2022-12-01T16:29:43.999Z,24.13
2022-12-01T16:32:21.735Z,25.73
2022-12-01T16:34:56.812Z,18.90
2022-12-01T16:37:30.183Z,26.05
2022-12-01T16:40:06.040Z,21.20
2022-12-01T16:42:39.314Z,39.72
2022-12-01T16:45:14.944Z,46.28
2022-12-01T16:47:49.847Z,23.48
2022-12-01T16:50:24.714Z,22.40
2022-12-01T16:52:58.075Z,25.63
2022-12-01T16:55:38.462Z,38.75
2022-12-01T16:58:11.737Z,45.97
2022-12-01T17:00:45.050Z,33.90
2022-12-01T17:03:18.426Z,29.20
2022-12-01T17:05:53.831Z,31.73
2022-12-01T17:08:27.234Z,26.38
2022-12-01T17:11:01.109Z,30.83
2022-12-01T17:13:34.983Z,31.55
2022-12-01T17:16:16.714Z,24.88
2022-12-01T17:18:51.578Z,20.25
2022-12-01T17:21:26.239Z,23.23
2022-12-01T17:23:59.584Z,19.88
2022-12-01T17:26:32.950Z,24.77
2022-12-01T17:29:06.329Z,20.10
2022-12-01T17:31:40.541Z,23.38
2022-12-01T17:34:13.936Z,22.60
2022-12-01T17:36:48.615Z,22.42
2022-12-01T17:39:22.420Z,25.08
2022-12-01T17:41:55.749Z,25.95
2022-12-01T17:44:29.095Z,26.20
2022-12-01T17:47:02.459Z,22.50
2022-12-01T17:49:36.960Z,22.73
2022-12-01T17:52:11.684Z,21.35
2022-12-01T17:54:45.068Z,38.30
2022-12-01T17:57:18.373Z,25.85
2022-12-01T17:59:51.656Z,25.02
2022-12-01T18:02:25.144Z,25.80
2022-12-01T18:04:58.606Z,24.45
2022-12-01T18:07:33.437Z,24.80
2022-12-01T18:10:08.083Z,20.50
2022-12-01T18:12:41.441Z,24.65
2022-12-01T18:15:14.822Z,32.08
2022-12-01T18:17:48.154Z,36.83
2022-12-01T18:20:21.848Z,24.52
2022-12-01T18:22:56.542Z,29.00
2022-12-01T18:25:29.832Z,29.55
2022-12-01T18:28:03.147Z,22.42
2022-12-01T18:30:36.505Z,27.65
2022-12-01T18:33:12.317Z,23.13
2022-12-01T18:35:46.040Z,28.30
2022-12-01T18:38:20.700Z,26.00
2022-12-01T18:40:57.454Z,26.00
2022-12-01T18:43:32.650Z,30.08
2022-12-01T18:46:07.085Z,36.08
2022-12-01T18:48:45.680Z,122.30
2022-12-01T18:51:19.820Z,48.78
2022-12-01T18:53:57.399Z,78.45
2022-12-01T18:56:30.827Z,39.90
2022-12-01T18:59:07.664Z,33.75
2022-12-01T19:01:44.005Z,27.10
2022-12-01T19:04:18.213Z,43.35
2022-12-01T19:06:51.534Z,43.20
2022-12-01T19:09:26.212Z,70.72
2022-12-01T19:12:00.803Z,53.35
2022-12-01T19:14:34.208Z,35.42
2022-12-01T19:17:07.593Z,51.03
2022-12-01T19:19:40.891Z,52.95
2022-12-01T19:22:14.572Z,38.13
2022-12-01T19:24:50.801Z,31.80
2022-12-01T19:27:24.365Z,27.75
2022-12-01T19:29:57.950Z,28.17
2022-12-01T19:32:32.317Z,25.83
2022-12-01T19:35:06.275Z,24.05
2022-12-01T19:37:39.632Z,27.15
2022-12-01T19:40:15.445Z,23.77
2022-12-01T19:42:48.907Z,24.10
2022-12-01T19:45:22.534Z,36.10
2022-12-01T19:47:56.057Z,37.70
2022-12-01T19:50:29.329Z,35.95
2022-12-01T19:53:02.878Z,22.15
2022-12-01T19:55:38.684Z,31.60
2022-12-01T19:58:12.137Z,25.65
2022-12-01T20:00:46.493Z,27.90
2022-12-01T20:03:19.824Z,28.65
2022-12-01T20:05:53.252Z,26.63
2022-12-01T20:08:26.660Z,29.35
2022-12-01T20:11:03.611Z,32.17
2022-12-01T20:13:38.406Z,34.60
2022-12-01T20:16:13.872Z,24.55
2022-12-01T20:18:47.623Z,23.77
2022-12-01T20:21:23.098Z,34.72
2022-12-01T20:23:58.765Z,29.80
2022-12-01T20:26:37.061Z,29.25
2022-12-01T20:29:13.297Z,31.08
2022-12-01T20:31:47.463Z,33.70
2022-12-01T20:34:25.474Z,74.68
2022-12-01T20:36:59.243Z,31.80
2022-12-01T20:39:34.716Z,27.90
2022-12-01T20:42:09.952Z,27.60
2022-12-01T20:44:43.342Z,31.40
2022-12-01T20:47:18.577Z,24.85
2022-12-01T20:49:55.509Z,30.85
2022-12-01T20:52:31.803Z,28.60
2022-12-01T20:55:05.659Z,28.25
2022-12-01T20:57:40.390Z,33.38
2022-12-01T21:00:15.014Z,49.20
2022-12-01T21:02:48.463Z,47.17
2022-12-01T21:05:21.861Z,45.50
2022-12-01T21:07:55.787Z,35.28
2022-12-01T21:10:29.609Z,46.92
2022-12-01T21:13:33.667Z,37.08
2022-12-01T21:16:14.092Z,36.53
2022-12-01T21:18:51.991Z,35.42
2022-12-01T21:21:27.609Z,42.78
2022-12-01T21:24:14.556Z,39.03
2022-12-01T21:26:50.418Z,29.92
2022-12-01T21:29:27.839Z,35.83
2022-12-01T21:32:08.109Z,33.25
2022-12-01T21:34:41.440Z,49.17
2022-12-01T21:37:21.559Z,52.38
2022-12-01T21:39:58.359Z,48.60
2022-12-01T21:42:32.933Z,39.38
2022-12-01T21:45:18.219Z,42.13
2022-12-01T21:47:51.463Z,34.92
2022-12-01T21:50:27.314Z,37.67
2022-12-01T21:53:01.180Z,38.55
2022-12-01T21:55:38.653Z,32.67
2022-12-01T21:58:25.450Z,34.28
2022-12-01T22:01:00.846Z,31.65
2022-12-01T22:03:35.623Z,30.63
2022-12-01T22:06:29.605Z,37.65
2022-12-01T22:09:15.393Z,39.42
2022-12-01T22:11:52.497Z,37.67
2022-12-01T22:14:30.503Z,40.75
2022-12-01T22:17:19.643Z,35.78
2022-12-01T22:19:58.138Z,34.55
2022-12-01T22:22:32.792Z,33.13
2022-12-01T22:25:22.040Z,38.60
2022-12-01T22:27:56.129Z,31.30
2022-12-01T22:30:29.463Z,33.22
2022-12-01T22:33:05.011Z,36.97
2022-12-01T22:35:43.100Z,30.65
2022-12-01T22:38:36.055Z,29.73
2022-12-01T22:41:12.737Z,27.88
2022-12-01T22:43:48.568Z,39.85
2022-12-01T22:46:25.785Z,35.33
2022-12-01T22:49:03.707Z,31.92
2022-12-01T22:51:40.734Z,33.50
2022-12-01T22:54:33.281Z,38.17
2022-12-01T22:57:26.912Z,44.95
2022-12-01T23:00:14.101Z,37.75
2022-12-01T23:02:49.558Z,46.72
2022-12-01T23:05:26.652Z,37.97
2022-12-01T23:08:00.226Z,34.78
2022-12-01T23:10:36.033Z,36.22
2022-12-01T23:13:16.211Z,37.53
2022-12-01T23:15:51.549Z,43.97
2022-12-01T23:18:27.015Z,29.45
2022-12-01T23:21:02.750Z,31.45
2022-12-01T23:23:38.493Z,33.72
2022-12-01T23:26:11.873Z,28.85
2022-12-01T23:28:45.323Z,30.90
2022-12-01T23:31:18.680Z,39.92
2022-12-01T23:33:52.233Z,39.30
2022-12-01T23:36:29.403Z,34.00
2022-12-01T23:39:05.869Z,38.92
2022-12-01T23:41:41.583Z,37.28
2022-12-01T23:44:21.130Z,38.80
2022-12-01T23:46:57.069Z,36.03
2022-12-01T23:49:33.400Z,31.75
2022-12-01T23:52:14.720Z,34.67
2022-12-01T23:54:48.999Z,35.50
2022-12-01T23:57:24.967Z,35.33
